sensor_id;sensor_type;location;lat;lon;timestamp;P1;durP1;ratioP1;P2;durP2;ratioP2
71671;SDS011;67659;45.554;11.812;2023-03-14T00:02:20;19.15;;;11.82;;
71671;SDS011;67659;45.554;11.812;2023-03-14T00:04:46;20.33;;;12.33;;
71671;SDS011;67659;45.554;11.812;2023-03-14T00:07:12;19.55;;;12.45;;
71671;SDS011;67659;45.554;11.812;2023-03-14T00:09:38;19.73;;;12.32;;
71671;SDS011;67659;45.554;11.812;2023-03-14T00:12:04;19.77;;;12.67;;
71671;SDS011;67659;45.554;11.812;2023-03-14T00:14:31;20.10;;;12.30;;
71671;SDS011;67659;45.554;11.812;2023-03-14T00:16:56;21.90;;;12.90;;
71671;SDS011;67659;45.554;11.812;2023-03-14T00:19:22;23.27;;;13.20;;
71671;SDS011;67659;45.554;11.812;2023-03-14T00:21:48;21.73;;;12.95;;
71671;SDS011;67659;45.554;11.812;2023-03-14T00:24:14;19.43;;;12.87;;
71671;SDS011;67659;45.554;11.812;2023-03-14T00:26:39;21.77;;;12.93;;
71671;SDS011;67659;45.554;11.812;2023-03-14T00:29:05;18.10;;;12.50;;
71671;SDS011;67659;45.554;11.812;2023-03-14T00:31:31;20.70;;;12.63;;
71671;SDS011;67659;45.554;11.812;2023-03-14T00:33:57;22.13;;;12.65;;
71671;SDS011;67659;45.554;11.812;2023-03-14T00:36:23;22.70;;;13.20;;
71671;SDS011;67659;45.554;11.812;2023-03-14T00:38:49;21.80;;;12.90;;
71671;SDS011;67659;45.554;11.812;2023-03-14T00:41:17;21.30;;;12.45;;
71671;SDS011;67659;45.554;11.812;2023-03-14T00:43:45;22.95;;;13.10;;
71671;SDS011;67659;45.554;11.812;2023-03-14T00:46:11;27.65;;;13.40;;
71671;SDS011;67659;45.554;11.812;2023-03-14T00:48:38;20.23;;;12.60;;
71671;SDS011;67659;45.554;11.812;2023-03-14T00:51:04;21.70;;;13.07;;
71671;SDS011;67659;45.554;11.812;2023-03-14T00:53:31;18.88;;;12.57;;
71671;SDS011;67659;45.554;11.812;2023-03-14T00:56:02;23.42;;;12.95;;
71671;SDS011;67659;45.554;11.812;2023-03-14T00:58:29;20.20;;;12.95;;
71671;SDS011;67659;45.554;11.812;2023-03-14T01:00:55;20.83;;;13.73;;
71671;SDS011;67659;45.554;11.812;2023-03-14T01:03:20;20.30;;;12.57;;
71671;SDS011;67659;45.554;11.812;2023-03-14T01:05:46;22.37;;;12.87;;
71671;SDS011;67659;45.554;11.812;2023-03-14T01:08:12;17.67;;;12.07;;
71671;SDS011;67659;45.554;11.812;2023-03-14T01:10:38;21.37;;;12.50;;
71671;SDS011;67659;45.554;11.812;2023-03-14T01:13:05;23.42;;;12.65;;
71671;SDS011;67659;45.554;11.812;2023-03-14T01:15:32;21.95;;;13.05;;
71671;SDS011;67659;45.554;11.812;2023-03-14T01:17:59;19.88;;;12.02;;
71671;SDS011;67659;45.554;11.812;2023-03-14T01:20:25;20.80;;;11.70;;
71671;SDS011;67659;45.554;11.812;2023-03-14T01:22:51;17.88;;;12.10;;
71671;SDS011;67659;45.554;11.812;2023-03-14T01:25:16;21.67;;;12.45;;
71671;SDS011;67659;45.554;11.812;2023-03-14T01:27:43;20.37;;;11.63;;
71671;SDS011;67659;45.554;11.812;2023-03-14T01:30:09;20.20;;;12.05;;
71671;SDS011;67659;45.554;11.812;2023-03-14T01:32:37;20.42;;;12.40;;
71671;SDS011;67659;45.554;11.812;2023-03-14T01:35:02;21.27;;;12.13;;
71671;SDS011;67659;45.554;11.812;2023-03-14T01:37:28;21.65;;;12.32;;
71671;SDS011;67659;45.554;11.812;2023-03-14T01:39:54;18.30;;;12.10;;
71671;SDS011;67659;45.554;11.812;2023-03-14T01:42:20;21.27;;;12.35;;
71671;SDS011;67659;45.554;11.812;2023-03-14T01:44:56;21.47;;;12.77;;
71671;SDS011;67659;45.554;11.812;2023-03-14T01:47:24;21.20;;;12.40;;
71671;SDS011;67659;45.554;11.812;2023-03-14T01:50:09;21.38;;;13.05;;
71671;SDS011;67659;45.554;11.812;2023-03-14T01:52:42;21.80;;;13.73;;
71671;SDS011;67659;45.554;11.812;2023-03-14T01:55:14;26.53;;;13.83;;
71671;SDS011;67659;45.554;11.812;2023-03-14T01:57:45;20.40;;;13.60;;
71671;SDS011;67659;45.554;11.812;2023-03-14T02:00:16;22.15;;;13.35;;
71671;SDS011;67659;45.554;11.812;2023-03-14T02:02:46;23.45;;;13.27;;
71671;SDS011;67659;45.554;11.812;2023-03-14T02:05:16;21.92;;;13.38;;
71671;SDS011;67659;45.554;11.812;2023-03-14T02:08:06;20.63;;;12.73;;
71671;SDS011;67659;45.554;11.812;2023-03-14T02:10:35;20.77;;;12.60;;
71671;SDS011;67659;45.554;11.812;2023-03-14T02:13:04;19.85;;;13.32;;
71671;SDS011;67659;45.554;11.812;2023-03-14T02:15:30;20.25;;;13.15;;
71671;SDS011;67659;45.554;11.812;2023-03-14T02:17:57;23.92;;;13.18;;
71671;SDS011;67659;45.554;11.812;2023-03-14T02:20:31;25.33;;;13.50;;
71671;SDS011;67659;45.554;11.812;2023-03-14T02:23:06;21.35;;;13.57;;
71671;SDS011;67659;45.554;11.812;2023-03-14T02:28:09;20.63;;;13.07;;
71671;SDS011;67659;45.554;11.812;2023-03-14T02:30:36;24.17;;;14.00;;
71671;SDS011;67659;45.554;11.812;2023-03-14T02:33:04;23.25;;;13.57;;
71671;SDS011;67659;45.554;11.812;2023-03-14T02:38:15;25.50;;;13.10;;
71671;SDS011;67659;45.554;11.812;2023-03-14T02:40:46;22.30;;;13.30;;
71671;SDS011;67659;45.554;11.812;2023-03-14T02:43:12;19.83;;;12.63;;
71671;SDS011;67659;45.554;11.812;2023-03-14T02:45:40;20.20;;;12.73;;
71671;SDS011;67659;45.554;11.812;2023-03-14T02:48:14;18.58;;;11.43;;
71671;SDS011;67659;45.554;11.812;2023-03-14T02:50:43;24.25;;;12.57;;
71671;SDS011;67659;45.554;11.812;2023-03-14T02:53:11;21.65;;;12.57;;
71671;SDS011;67659;45.554;11.812;2023-03-14T02:55:39;23.07;;;12.77;;
71671;SDS011;67659;45.554;11.812;2023-03-14T02:58:05;21.15;;;12.45;;
71671;SDS011;67659;45.554;11.812;2023-03-14T03:00:30;21.00;;;12.18;;
71671;SDS011;67659;45.554;11.812;2023-03-14T03:02:56;22.23;;;12.47;;
71671;SDS011;67659;45.554;11.812;2023-03-14T03:05:22;18.27;;;11.75;;
71671;SDS011;67659;45.554;11.812;2023-03-14T03:07:48;19.97;;;11.77;;
71671;SDS011;67659;45.554;11.812;2023-03-14T03:10:13;20.27;;;11.75;;
71671;SDS011;67659;45.554;11.812;2023-03-14T03:12:39;20.23;;;12.07;;
71671;SDS011;67659;45.554;11.812;2023-03-14T03:15:05;20.70;;;11.50;;
71671;SDS011;67659;45.554;11.812;2023-03-14T03:17:31;20.90;;;11.63;;
71671;SDS011;67659;45.554;11.812;2023-03-14T03:19:57;20.93;;;11.13;;
71671;SDS011;67659;45.554;11.812;2023-03-14T03:22:23;18.77;;;11.07;;
71671;SDS011;67659;45.554;11.812;2023-03-14T03:24:48;18.55;;;10.90;;
71671;SDS011;67659;45.554;11.812;2023-03-14T03:27:14;19.57;;;10.73;;
71671;SDS011;67659;45.554;11.812;2023-03-14T03:29:40;19.13;;;10.77;;
71671;SDS011;67659;45.554;11.812;2023-03-14T03:32:06;19.10;;;10.47;;
71671;SDS011;67659;45.554;11.812;2023-03-14T03:34:31;21.00;;;11.02;;
71671;SDS011;67659;45.554;11.812;2023-03-14T03:36:57;17.47;;;10.37;;
71671;SDS011;67659;45.554;11.812;2023-03-14T03:39:23;17.07;;;10.03;;
71671;SDS011;67659;45.554;11.812;2023-03-14T03:41:49;17.35;;;10.18;;
71671;SDS011;67659;45.554;11.812;2023-03-14T03:44:15;18.50;;;10.27;;
71671;SDS011;67659;45.554;11.812;2023-03-14T03:46:40;20.77;;;10.37;;
71671;SDS011;67659;45.554;11.812;2023-03-14T03:49:06;19.00;;;9.98;;
71671;SDS011;67659;45.554;11.812;2023-03-14T03:51:32;20.83;;;10.23;;
71671;SDS011;67659;45.554;11.812;2023-03-14T03:53:58;18.35;;;10.43;;
71671;SDS011;67659;45.554;11.812;2023-03-14T03:56:23;19.80;;;10.40;;
71671;SDS011;67659;45.554;11.812;2023-03-14T03:58:49;18.52;;;10.07;;
71671;SDS011;67659;45.554;11.812;2023-03-14T04:01:15;19.27;;;10.57;;
71671;SDS011;67659;45.554;11.812;2023-03-14T04:03:41;20.33;;;10.90;;
71671;SDS011;67659;45.554;11.812;2023-03-14T04:06:08;26.73;;;17.67;;
71671;SDS011;67659;45.554;11.812;2023-03-14T04:08:36;25.60;;;14.50;;
71671;SDS011;67659;45.554;11.812;2023-03-14T04:11:03;25.25;;;14.40;;
71671;SDS011;67659;45.554;11.812;2023-03-14T04:13:29;27.13;;;16.73;;
71671;SDS011;67659;45.554;11.812;2023-03-14T04:15:55;28.27;;;17.20;;
71671;SDS011;67659;45.554;11.812;2023-03-14T04:18:21;22.30;;;15.15;;
71671;SDS011;67659;45.554;11.812;2023-03-14T04:20:53;20.48;;;12.27;;
71671;SDS011;67659;45.554;11.812;2023-03-14T04:23:20;17.67;;;10.65;;
71671;SDS011;67659;45.554;11.812;2023-03-14T04:25:49;18.23;;;10.57;;
71671;SDS011;67659;45.554;11.812;2023-03-14T04:28:16;17.42;;;9.45;;
71671;SDS011;67659;45.554;11.812;2023-03-14T04:30:42;18.52;;;10.95;;
71671;SDS011;67659;45.554;11.812;2023-03-14T04:33:08;19.20;;;10.32;;
71671;SDS011;67659;45.554;11.812;2023-03-14T04:35:34;19.63;;;10.20;;
71671;SDS011;67659;45.554;11.812;2023-03-14T04:38:00;18.07;;;11.07;;
71671;SDS011;67659;45.554;11.812;2023-03-14T04:40:26;18.90;;;10.75;;
71671;SDS011;67659;45.554;11.812;2023-03-14T04:42:52;17.42;;;9.35;;
71671;SDS011;67659;45.554;11.812;2023-03-14T04:45:18;17.40;;;9.63;;
71671;SDS011;67659;45.554;11.812;2023-03-14T04:47:44;18.52;;;9.55;;
71671;SDS011;67659;45.554;11.812;2023-03-14T04:50:09;21.55;;;10.80;;
71671;SDS011;67659;45.554;11.812;2023-03-14T04:52:35;19.65;;;11.07;;
71671;SDS011;67659;45.554;11.812;2023-03-14T04:55:01;18.70;;;10.30;;
71671;SDS011;67659;45.554;11.812;2023-03-14T04:57:27;17.48;;;8.88;;
71671;SDS011;67659;45.554;11.812;2023-03-14T04:59:53;15.85;;;9.48;;
71671;SDS011;67659;45.554;11.812;2023-03-14T05:02:19;18.97;;;9.63;;
71671;SDS011;67659;45.554;11.812;2023-03-14T05:04:44;15.85;;;9.15;;
71671;SDS011;67659;45.554;11.812;2023-03-14T05:07:10;17.00;;;9.33;;
71671;SDS011;67659;45.554;11.812;2023-03-14T05:09:36;16.60;;;8.88;;
71671;SDS011;67659;45.554;11.812;2023-03-14T05:12:02;17.73;;;9.15;;
71671;SDS011;67659;45.554;11.812;2023-03-14T05:14:28;16.03;;;8.83;;
71671;SDS011;67659;45.554;11.812;2023-03-14T05:16:54;14.98;;;8.63;;
71671;SDS011;67659;45.554;11.812;2023-03-14T05:19:19;15.93;;;9.00;;
71671;SDS011;67659;45.554;11.812;2023-03-14T05:21:45;15.93;;;8.83;;
71671;SDS011;67659;45.554;11.812;2023-03-14T05:24:11;15.68;;;9.10;;
71671;SDS011;67659;45.554;11.812;2023-03-14T05:26:37;16.10;;;8.37;;
71671;SDS011;67659;45.554;11.812;2023-03-14T05:29:02;17.05;;;8.35;;
71671;SDS011;67659;45.554;11.812;2023-03-14T05:31:28;14.25;;;7.68;;
71671;SDS011;67659;45.554;11.812;2023-03-14T05:33:54;15.03;;;8.20;;
71671;SDS011;67659;45.554;11.812;2023-03-14T05:36:20;14.60;;;7.95;;
71671;SDS011;67659;45.554;11.812;2023-03-14T05:38:46;13.87;;;7.33;;
71671;SDS011;67659;45.554;11.812;2023-03-14T05:41:11;17.42;;;8.65;;
71671;SDS011;67659;45.554;11.812;2023-03-14T05:43:37;16.35;;;8.50;;
71671;SDS011;67659;45.554;11.812;2023-03-14T05:46:04;14.17;;;7.77;;
71671;SDS011;67659;45.554;11.812;2023-03-14T05:48:30;18.25;;;8.65;;
71671;SDS011;67659;45.554;11.812;2023-03-14T05:50:56;17.95;;;8.55;;
71671;SDS011;67659;45.554;11.812;2023-03-14T05:53:24;16.95;;;8.80;;
71671;SDS011;67659;45.554;11.812;2023-03-14T05:55:53;19.87;;;8.77;;
71671;SDS011;67659;45.554;11.812;2023-03-14T05:58:20;16.17;;;8.73;;
71671;SDS011;67659;45.554;11.812;2023-03-14T06:00:45;17.02;;;8.73;;
71671;SDS011;67659;45.554;11.812;2023-03-14T06:03:11;17.83;;;8.93;;
71671;SDS011;67659;45.554;11.812;2023-03-14T06:05:37;17.43;;;9.03;;
71671;SDS011;67659;45.554;11.812;2023-03-14T06:08:03;15.93;;;8.20;;
71671;SDS011;67659;45.554;11.812;2023-03-14T06:10:29;15.18;;;8.50;;
71671;SDS011;67659;45.554;11.812;2023-03-14T06:12:55;19.93;;;9.47;;
71671;SDS011;67659;45.554;11.812;2023-03-14T06:15:21;20.58;;;8.85;;
71671;SDS011;67659;45.554;11.812;2023-03-14T06:17:47;18.50;;;8.48;;
71671;SDS011;67659;45.554;11.812;2023-03-14T06:20:12;13.97;;;8.67;;
71671;SDS011;67659;45.554;11.812;2023-03-14T06:22:38;16.02;;;8.82;;
71671;SDS011;67659;45.554;11.812;2023-03-14T06:25:06;18.90;;;8.80;;
71671;SDS011;67659;45.554;11.812;2023-03-14T06:27:32;20.35;;;8.38;;
71671;SDS011;67659;45.554;11.812;2023-03-14T06:29:59;18.13;;;9.53;;
71671;SDS011;67659;45.554;11.812;2023-03-14T06:32:25;20.00;;;8.43;;
71671;SDS011;67659;45.554;11.812;2023-03-14T06:34:51;18.48;;;8.80;;
71671;SDS011;67659;45.554;11.812;2023-03-14T06:37:16;18.50;;;8.57;;
71671;SDS011;67659;45.554;11.812;2023-03-14T06:39:42;17.88;;;8.32;;
71671;SDS011;67659;45.554;11.812;2023-03-14T06:42:09;22.20;;;8.80;;
71671;SDS011;67659;45.554;11.812;2023-03-14T06:44:35;18.83;;;8.82;;
71671;SDS011;67659;45.554;11.812;2023-03-14T06:47:01;17.42;;;8.50;;
71671;SDS011;67659;45.554;11.812;2023-03-14T06:49:27;19.80;;;9.17;;
71671;SDS011;67659;45.554;11.812;2023-03-14T06:51:53;19.05;;;9.00;;
71671;SDS011;67659;45.554;11.812;2023-03-14T06:54:19;18.60;;;9.32;;
71671;SDS011;67659;45.554;11.812;2023-03-14T06:56:45;18.13;;;8.30;;
71671;SDS011;67659;45.554;11.812;2023-03-14T06:59:10;15.30;;;8.80;;
71671;SDS011;67659;45.554;11.812;2023-03-14T07:01:36;17.92;;;9.10;;
71671;SDS011;67659;45.554;11.812;2023-03-14T07:04:02;19.20;;;9.70;;
71671;SDS011;67659;45.554;11.812;2023-03-14T07:06:28;18.83;;;9.43;;
71671;SDS011;67659;45.554;11.812;2023-03-14T07:08:55;19.75;;;9.43;;
71671;SDS011;67659;45.554;11.812;2023-03-14T07:11:21;19.73;;;9.73;;
71671;SDS011;67659;45.554;11.812;2023-03-14T07:13:47;19.77;;;9.83;;
71671;SDS011;67659;45.554;11.812;2023-03-14T07:16:13;20.05;;;10.02;;
71671;SDS011;67659;45.554;11.812;2023-03-14T07:18:39;19.47;;;10.40;;
71671;SDS011;67659;45.554;11.812;2023-03-14T07:21:05;22.40;;;10.82;;
71671;SDS011;67659;45.554;11.812;2023-03-14T07:23:34;19.85;;;11.13;;
71671;SDS011;67659;45.554;11.812;2023-03-14T07:26:00;21.83;;;11.60;;
71671;SDS011;67659;45.554;11.812;2023-03-14T07:28:26;21.02;;;11.38;;
71671;SDS011;67659;45.554;11.812;2023-03-14T07:30:52;19.20;;;10.83;;
71671;SDS011;67659;45.554;11.812;2023-03-14T07:33:19;18.17;;;10.10;;
71671;SDS011;67659;45.554;11.812;2023-03-14T07:35:46;20.00;;;10.43;;
71671;SDS011;67659;45.554;11.812;2023-03-14T07:38:13;18.10;;;9.15;;
71671;SDS011;67659;45.554;11.812;2023-03-14T07:40:39;18.55;;;9.20;;
71671;SDS011;67659;45.554;11.812;2023-03-14T07:43:05;13.30;;;7.10;;
71671;SDS011;67659;45.554;11.812;2023-03-14T07:45:31;15.75;;;8.10;;
71671;SDS011;67659;45.554;11.812;2023-03-14T07:47:57;14.40;;;8.50;;
71671;SDS011;67659;45.554;11.812;2023-03-14T07:50:26;19.27;;;9.57;;
71671;SDS011;67659;45.554;11.812;2023-03-14T07:52:52;15.73;;;8.43;;
71671;SDS011;67659;45.554;11.812;2023-03-14T07:55:18;17.00;;;9.52;;
71671;SDS011;67659;45.554;11.812;2023-03-14T07:57:44;18.83;;;10.33;;
71671;SDS011;67659;45.554;11.812;2023-03-14T08:00:09;17.67;;;10.05;;
71671;SDS011;67659;45.554;11.812;2023-03-14T08:02:36;16.10;;;8.98;;
71671;SDS011;67659;45.554;11.812;2023-03-14T08:05:02;19.87;;;9.60;;
71671;SDS011;67659;45.554;11.812;2023-03-14T08:07:29;23.02;;;11.68;;
71671;SDS011;67659;45.554;11.812;2023-03-14T08:09:54;19.93;;;10.77;;
71671;SDS011;67659;45.554;11.812;2023-03-14T08:12:20;16.35;;;9.93;;
71671;SDS011;67659;45.554;11.812;2023-03-14T08:14:46;20.33;;;11.75;;
71671;SDS011;67659;45.554;11.812;2023-03-14T08:17:12;17.47;;;10.10;;
71671;SDS011;67659;45.554;11.812;2023-03-14T08:19:38;17.63;;;10.27;;
71671;SDS011;67659;45.554;11.812;2023-03-14T08:22:04;18.15;;;9.68;;
71671;SDS011;67659;45.554;11.812;2023-03-14T08:24:30;19.23;;;9.13;;
71671;SDS011;67659;45.554;11.812;2023-03-14T08:26:56;20.80;;;11.85;;
71671;SDS011;67659;45.554;11.812;2023-03-14T08:29:21;17.55;;;9.18;;
71671;SDS011;67659;45.554;11.812;2023-03-14T08:31:47;15.53;;;8.53;;
71671;SDS011;67659;45.554;11.812;2023-03-14T08:34:14;20.48;;;12.77;;
71671;SDS011;67659;45.554;11.812;2023-03-14T08:36:40;17.52;;;9.55;;
71671;SDS011;67659;45.554;11.812;2023-03-14T08:39:06;24.25;;;13.10;;
71671;SDS011;67659;45.554;11.812;2023-03-14T08:41:32;36.03;;;19.20;;
71671;SDS011;67659;45.554;11.812;2023-03-14T08:44:05;143.52;;;51.00;;
71671;SDS011;67659;45.554;11.812;2023-03-14T08:46:34;115.72;;;39.65;;
71671;SDS011;67659;45.554;11.812;2023-03-14T08:49:00;105.53;;;44.38;;
71671;SDS011;67659;45.554;11.812;2023-03-14T08:51:26;46.10;;;24.87;;
71671;SDS011;67659;45.554;11.812;2023-03-14T08:53:51;40.22;;;22.13;;
71671;SDS011;67659;45.554;11.812;2023-03-14T08:56:17;120.30;;;53.53;;
71671;SDS011;67659;45.554;11.812;2023-03-14T08:58:43;50.47;;;26.57;;
71671;SDS011;67659;45.554;11.812;2023-03-14T09:01:09;42.40;;;22.00;;
71671;SDS011;67659;45.554;11.812;2023-03-14T09:03:36;44.10;;;25.65;;
71671;SDS011;67659;45.554;11.812;2023-03-14T09:06:06;76.65;;;42.47;;
71671;SDS011;67659;45.554;11.812;2023-03-14T09:08:34;33.40;;;21.97;;
71671;SDS011;67659;45.554;11.812;2023-03-14T09:11:00;23.67;;;15.35;;
71671;SDS011;67659;45.554;11.812;2023-03-14T09:13:26;36.95;;;24.83;;
71671;SDS011;67659;45.554;11.812;2023-03-14T09:15:56;60.92;;;28.48;;
71671;SDS011;67659;45.554;11.812;2023-03-14T09:18:22;68.83;;;33.67;;
71671;SDS011;67659;45.554;11.812;2023-03-14T09:20:48;68.95;;;30.88;;
71671;SDS011;67659;45.554;11.812;2023-03-14T09:23:15;89.40;;;34.55;;
71671;SDS011;67659;45.554;11.812;2023-03-14T09:25:40;90.23;;;37.03;;
71671;SDS011;67659;45.554;11.812;2023-03-14T09:28:06;59.23;;;28.67;;
71671;SDS011;67659;45.554;11.812;2023-03-14T09:30:32;53.42;;;24.95;;
71671;SDS011;67659;45.554;11.812;2023-03-14T09:32:58;53.60;;;24.73;;
71671;SDS011;67659;45.554;11.812;2023-03-14T09:35:24;24.70;;;12.93;;
71671;SDS011;67659;45.554;11.812;2023-03-14T09:37:50;21.20;;;11.30;;
71671;SDS011;67659;45.554;11.812;2023-03-14T09:40:16;127.47;;;49.13;;
71671;SDS011;67659;45.554;11.812;2023-03-14T09:42:52;115.95;;;51.22;;
71671;SDS011;67659;45.554;11.812;2023-03-14T09:47:52;33.83;;;19.02;;
71671;SDS011;67659;45.554;11.812;2023-03-14T09:50:19;41.53;;;30.00;;
71671;SDS011;67659;45.554;11.812;2023-03-14T09:52:46;41.10;;;30.17;;
71671;SDS011;67659;45.554;11.812;2023-03-14T09:55:16;29.15;;;16.92;;
71671;SDS011;67659;45.554;11.812;2023-03-14T09:57:46;31.60;;;20.27;;
71671;SDS011;67659;45.554;11.812;2023-03-14T10:02:42;32.17;;;19.02;;
71671;SDS011;67659;45.554;11.812;2023-03-14T10:05:16;35.53;;;19.73;;
71671;SDS011;67659;45.554;11.812;2023-03-14T10:07:43;31.42;;;17.00;;
71671;SDS011;67659;45.554;11.812;2023-03-14T10:12:45;46.03;;;24.33;;
71671;SDS011;67659;45.554;11.812;2023-03-14T10:15:13;46.55;;;22.20;;
71671;SDS011;67659;45.554;11.812;2023-03-14T10:17:51;68.10;;;30.45;;
71671;SDS011;67659;45.554;11.812;2023-03-14T10:25:33;53.75;;;22.20;;
71671;SDS011;67659;45.554;11.812;2023-03-14T10:28:00;38.28;;;16.83;;
71671;SDS011;67659;45.554;11.812;2023-03-14T10:30:33;35.75;;;15.38;;
71671;SDS011;67659;45.554;11.812;2023-03-14T10:33:09;23.20;;;10.50;;
71671;SDS011;67659;45.554;11.812;2023-03-14T10:35:36;17.52;;;10.27;;
71671;SDS011;67659;45.554;11.812;2023-03-14T10:38:02;21.55;;;10.20;;
71671;SDS011;67659;45.554;11.812;2023-03-14T10:40:34;17.65;;;10.00;;
71671;SDS011;67659;45.554;11.812;2023-03-14T10:43:04;23.25;;;12.25;;
71671;SDS011;67659;45.554;11.812;2023-03-14T10:45:33;18.43;;;10.07;;
71671;SDS011;67659;45.554;11.812;2023-03-14T10:50:54;18.27;;;10.70;;
71671;SDS011;67659;45.554;11.812;2023-03-14T10:53:45;41.17;;;30.02;;
71671;SDS011;67659;45.554;11.812;2023-03-14T10:56:17;53.03;;;40.95;;
71671;SDS011;67659;45.554;11.812;2023-03-14T10:58:45;20.23;;;11.53;;
71671;SDS011;67659;45.554;11.812;2023-03-14T11:03:42;17.83;;;8.85;;
71671;SDS011;67659;45.554;11.812;2023-03-14T11:06:18;15.63;;;8.80;;
71671;SDS011;67659;45.554;11.812;2023-03-14T11:08:55;18.30;;;8.63;;
71671;SDS011;67659;45.554;11.812;2023-03-14T11:11:30;17.17;;;8.60;;
71671;SDS011;67659;45.554;11.812;2023-03-14T11:16:41;28.38;;;21.15;;
71671;SDS011;67659;45.554;11.812;2023-03-14T11:22:19;17.60;;;8.80;;
71671;SDS011;67659;45.554;11.812;2023-03-14T11:24:58;16.13;;;8.03;;
71671;SDS011;67659;45.554;11.812;2023-03-14T11:27:39;15.55;;;6.18;;
71671;SDS011;67659;45.554;11.812;2023-03-14T11:36:24;15.13;;;6.90;;
71671;SDS011;67659;45.554;11.812;2023-03-14T11:41:08;12.38;;;5.05;;
71671;SDS011;67659;45.554;11.812;2023-03-14T11:43:48;12.32;;;5.82;;
71671;SDS011;67659;45.554;11.812;2023-03-14T11:46:23;15.98;;;7.28;;
71671;SDS011;67659;45.554;11.812;2023-03-14T11:48:58;13.93;;;7.25;;
71671;SDS011;67659;45.554;11.812;2023-03-14T11:51:35;16.27;;;7.50;;
71671;SDS011;67659;45.554;11.812;2023-03-14T11:56:51;13.68;;;6.60;;
71671;SDS011;67659;45.554;11.812;2023-03-14T12:02:34;14.48;;;6.13;;
71671;SDS011;67659;45.554;11.812;2023-03-14T12:13:09;28.73;;;16.07;;
71671;SDS011;67659;45.554;11.812;2023-03-14T12:15:47;33.47;;;20.00;;
71671;SDS011;67659;45.554;11.812;2023-03-14T12:18:25;42.63;;;25.60;;
71671;SDS011;67659;45.554;11.812;2023-03-14T12:21:00;29.45;;;17.65;;
71671;SDS011;67659;45.554;11.812;2023-03-14T12:29:11;43.60;;;25.98;;
71671;SDS011;67659;45.554;11.812;2023-03-14T12:31:44;36.80;;;18.67;;
71671;SDS011;67659;45.554;11.812;2023-03-14T12:42:10;37.53;;;21.35;;
71671;SDS011;67659;45.554;11.812;2023-03-14T12:45:13;18.52;;;9.75;;
71671;SDS011;67659;45.554;11.812;2023-03-14T12:47:48;26.08;;;11.73;;
71671;SDS011;67659;45.554;11.812;2023-03-14T12:50:21;38.17;;;17.83;;
71671;SDS011;67659;45.554;11.812;2023-03-14T12:52:58;18.52;;;8.57;;
71671;SDS011;67659;45.554;11.812;2023-03-14T13:01:26;34.38;;;15.05;;
71671;SDS011;67659;45.554;11.812;2023-03-14T13:03:54;20.67;;;9.40;;
71671;SDS011;67659;45.554;11.812;2023-03-14T13:07:28;20.80;;;8.10;;
71671;SDS011;67659;45.554;11.812;2023-03-14T13:11:52;12.82;;;5.70;;
71671;SDS011;67659;45.554;11.812;2023-03-14T13:14:19;13.68;;;6.13;;
71671;SDS011;67659;45.554;11.812;2023-03-14T13:16:48;13.97;;;6.40;;
71671;SDS011;67659;45.554;11.812;2023-03-14T13:19:18;69.13;;;22.75;;
71671;SDS011;67659;45.554;11.812;2023-03-14T13:21:48;34.13;;;12.93;;
71671;SDS011;67659;45.554;11.812;2023-03-14T13:24:23;11.57;;;5.60;;
71671;SDS011;67659;45.554;11.812;2023-03-14T13:26:54;14.95;;;6.05;;
71671;SDS011;67659;45.554;11.812;2023-03-14T13:29:30;13.87;;;5.50;;
71671;SDS011;67659;45.554;11.812;2023-03-14T13:31:58;11.82;;;5.22;;
71671;SDS011;67659;45.554;11.812;2023-03-14T13:34:30;11.20;;;5.05;;
71671;SDS011;67659;45.554;11.812;2023-03-14T13:36:58;11.00;;;5.13;;
71671;SDS011;67659;45.554;11.812;2023-03-14T13:39:25;11.55;;;5.00;;
71671;SDS011;67659;45.554;11.812;2023-03-14T13:41:54;12.47;;;5.77;;
71671;SDS011;67659;45.554;11.812;2023-03-14T13:44:29;11.45;;;5.50;;
71671;SDS011;67659;45.554;11.812;2023-03-14T13:46:59;12.23;;;5.63;;
71671;SDS011;67659;45.554;11.812;2023-03-14T13:49:26;12.43;;;4.90;;
71671;SDS011;67659;45.554;11.812;2023-03-14T13:51:56;12.25;;;5.50;;
71671;SDS011;67659;45.554;11.812;2023-03-14T13:54:22;10.60;;;4.90;;
71671;SDS011;67659;45.554;11.812;2023-03-14T13:56:58;17.75;;;7.63;;
71671;SDS011;67659;45.554;11.812;2023-03-14T13:59:32;26.77;;;15.77;;
71671;SDS011;67659;45.554;11.812;2023-03-14T14:02:00;12.13;;;5.68;;
71671;SDS011;67659;45.554;11.812;2023-03-14T14:04:38;12.10;;;5.03;;
71671;SDS011;67659;45.554;11.812;2023-03-14T14:07:08;14.07;;;4.97;;
71671;SDS011;67659;45.554;11.812;2023-03-14T14:09:39;17.35;;;11.68;;
71671;SDS011;67659;45.554;11.812;2023-03-14T14:14:54;11.15;;;4.78;;
71671;SDS011;67659;45.554;11.812;2023-03-14T14:17:26;13.77;;;5.20;;
71671;SDS011;67659;45.554;11.812;2023-03-14T14:20:20;17.02;;;9.85;;
71671;SDS011;67659;45.554;11.812;2023-03-14T14:23:02;15.75;;;9.90;;
71671;SDS011;67659;45.554;11.812;2023-03-14T14:25:35;18.88;;;10.27;;
71671;SDS011;67659;45.554;11.812;2023-03-14T14:28:21;12.20;;;5.65;;
71671;SDS011;67659;45.554;11.812;2023-03-14T14:34:03;11.52;;;4.50;;
71671;SDS011;67659;45.554;11.812;2023-03-14T14:39:09;12.40;;;5.60;;
71671;SDS011;67659;45.554;11.812;2023-03-14T14:41:41;12.50;;;4.93;;
71671;SDS011;67659;45.554;11.812;2023-03-14T14:44:10;9.13;;;4.03;;
71671;SDS011;67659;45.554;11.812;2023-03-14T14:46:38;11.52;;;4.10;;
71671;SDS011;67659;45.554;11.812;2023-03-14T14:49:12;11.00;;;4.07;;
71671;SDS011;67659;45.554;11.812;2023-03-14T14:51:43;16.02;;;4.55;;
71671;SDS011;67659;45.554;11.812;2023-03-14T14:54:15;10.57;;;4.60;;
71671;SDS011;67659;45.554;11.812;2023-03-14T14:57:01;12.27;;;5.37;;
71671;SDS011;67659;45.554;11.812;2023-03-14T14:59:27;10.80;;;4.75;;
71671;SDS011;67659;45.554;11.812;2023-03-14T15:01:57;12.45;;;4.90;;
71671;SDS011;67659;45.554;11.812;2023-03-14T15:04:25;12.18;;;5.10;;
71671;SDS011;67659;45.554;11.812;2023-03-14T15:06:52;12.23;;;5.55;;
71671;SDS011;67659;45.554;11.812;2023-03-14T15:09:18;14.57;;;5.70;;
71671;SDS011;67659;45.554;11.812;2023-03-14T15:11:45;13.75;;;5.25;;
71671;SDS011;67659;45.554;11.812;2023-03-14T15:14:11;12.23;;;5.50;;
71671;SDS011;67659;45.554;11.812;2023-03-14T15:16:38;11.63;;;5.53;;
71671;SDS011;67659;45.554;11.812;2023-03-14T15:19:26;10.65;;;5.65;;
71671;SDS011;67659;45.554;11.812;2023-03-14T15:21:54;12.97;;;5.30;;
71671;SDS011;67659;45.554;11.812;2023-03-14T15:24:20;12.20;;;5.38;;
71671;SDS011;67659;45.554;11.812;2023-03-14T15:26:47;13.27;;;5.82;;
71671;SDS011;67659;45.554;11.812;2023-03-14T15:29:13;12.15;;;5.45;;
71671;SDS011;67659;45.554;11.812;2023-03-14T15:31:39;14.43;;;5.87;;
71671;SDS011;67659;45.554;11.812;2023-03-14T15:34:06;13.57;;;5.67;;
71671;SDS011;67659;45.554;11.812;2023-03-14T15:36:32;28.67;;;18.13;;
71671;SDS011;67659;45.554;11.812;2023-03-14T15:39:00;13.57;;;6.40;;
71671;SDS011;67659;45.554;11.812;2023-03-14T15:41:27;14.32;;;5.53;;
71671;SDS011;67659;45.554;11.812;2023-03-14T15:43:53;14.07;;;5.80;;